sensor_id;sensor_type;location;lat;lon;timestamp;P1;P2;P0
74432;PMS7003;62865;53.146;23.172;2022-11-02T00:04:18;16;13.8;7.4
74432;PMS7003;62865;53.146;23.172;2022-11-02T00:09:08;13.4;12;7
74432;PMS7003;62865;53.146;23.172;2022-11-02T00:13:52;16;14.5;8.5
74432;PMS7003;62865;53.146;23.172;2022-11-02T00:18:52;23;16;9
74432;PMS7003;62865;53.146;23.172;2022-11-02T00:24:22;20.2;15.8;7.8
74432;PMS7003;62865;53.146;23.172;2022-11-02T00:29:06;16;12.4;7.2
74432;PMS7003;62865;53.146;23.172;2022-11-02T00:34:34;15;11.2;7
74432;PMS7003;62865;53.146;23.172;2022-11-02T00:38:52;14.8;11.8;7.4
74432;PMS7003;62865;53.146;23.172;2022-11-02T00:44:20;13.6;10.4;6.6
74432;PMS7003;62865;53.146;23.172;2022-11-02T00:49:10;11.6;9.8;6.2
74432;PMS7003;62865;53.146;23.172;2022-11-02T00:54:36;14.2;11.2;6.8
74432;PMS7003;62865;53.146;23.172;2022-11-02T00:59:36;13;11.4;7.2
74432;PMS7003;62865;53.146;23.172;2022-11-02T01:03:54;15;12.8;7
74432;PMS7003;62865;53.146;23.172;2022-11-02T01:09:22;15;14;8
74432;PMS7003;62865;53.146;23.172;2022-11-02T01:14:24;12;11;7
74432;PMS7003;62865;53.146;23.172;2022-11-02T01:19:24;16;14.3;9.3
74432;PMS7003;62865;53.146;23.172;2022-11-02T01:23:56;12;12;7
74432;PMS7003;62865;53.146;23.172;2022-11-02T01:28:52;27.6;23.6;13.4
74432;PMS7003;62865;53.146;23.172;2022-11-02T01:34:16;36;32;18
74432;PMS7003;62865;53.146;23.172;2022-11-02T01:39:24;34;28.5;16
74432;PMS7003;62865;53.146;23.172;2022-11-02T01:44:24;29.7;24.7;15
74432;PMS7003;62865;53.146;23.172;2022-11-02T01:48:55;24.6;19.4;12
74432;PMS7003;62865;53.146;23.172;2022-11-02T01:53:52;23.6;20.2;11
74432;PMS7003;62865;53.146;23.172;2022-11-02T01:59:27;27.4;22.2;11.8
74432;PMS7003;62865;53.146;23.172;2022-11-02T02:04:06;23.8;20;11.8
74432;PMS7003;62865;53.146;23.172;2022-11-02T02:09:34;23.6;19.6;9.8
74432;PMS7003;62865;53.146;23.172;2022-11-02T02:14:36;21.6;18.6;10.4
74432;PMS7003;62865;53.146;23.172;2022-11-02T02:18:54;22.4;18.4;10.4
74432;PMS7003;62865;53.146;23.172;2022-11-02T02:24:30;18.8;17.2;10.4
74432;PMS7003;62865;53.146;23.172;2022-11-02T02:29:17;21;17.4;11.2
74432;PMS7003;62865;53.146;23.172;2022-11-02T02:34:27;20.8;16.8;9
74432;PMS7003;62865;53.146;23.172;2022-11-02T02:38:55;17.2;15.6;9
74432;PMS7003;62865;53.146;23.172;2022-11-02T02:43:52;19.4;16;9
74432;PMS7003;62865;53.146;23.172;2022-11-02T02:49:14;20;16.6;9.4
74432;PMS7003;62865;53.146;23.172;2022-11-02T02:54:29;18.5;15.3;9.3
74432;PMS7003;62865;53.146;23.172;2022-11-02T02:59:13;17.8;16.6;8.4
74432;PMS7003;62865;53.146;23.172;2022-11-02T03:04:40;16.6;14.8;9.2
74432;PMS7003;62865;53.146;23.172;2022-11-02T03:09:04;21.8;17.2;10.4
74432;PMS7003;62865;53.146;23.172;2022-11-02T03:14:32;23.2;17.8;9.8
74432;PMS7003;62865;53.146;23.172;2022-11-02T03:18:52;19.2;15.6;9.6
74432;PMS7003;62865;53.146;23.172;2022-11-02T03:24:40;22.8;16.8;9.8
74432;PMS7003;62865;53.146;23.172;2022-11-02T03:29:38;16.6;14.8;8
74432;PMS7003;62865;53.146;23.172;2022-11-02T03:34:02;16.4;13.2;8.2
74432;PMS7003;62865;53.146;23.172;2022-11-02T03:39:03;18.2;14.8;9.2
74432;PMS7003;62865;53.146;23.172;2022-11-02T03:44:07;16.2;14.4;8
74432;PMS7003;62865;53.146;23.172;2022-11-02T03:49:17;14.4;12;6.8
74432;PMS7003;62865;53.146;23.172;2022-11-02T03:54:12;15.4;12.4;8
74432;PMS7003;62865;53.146;23.172;2022-11-02T03:58:52;15;13.2;7.6
74432;PMS7003;62865;53.146;23.172;2022-11-02T04:03:52;15;12.8;7.4
74432;PMS7003;62865;53.146;23.172;2022-11-02T04:09:38;15.2;13;7.6
74432;PMS7003;62865;53.146;23.172;2022-11-02T04:14:02;14.4;11.6;7.2
74432;PMS7003;62865;53.146;23.172;2022-11-02T04:19:36;15.4;12.2;7.2
74432;PMS7003;62865;53.146;23.172;2022-11-02T04:23:52;16;13.3;8
74432;PMS7003;62865;53.146;23.172;2022-11-02T04:29:02;15.3;13.5;7.8
74432;PMS7003;62865;53.146;23.172;2022-11-02T04:33:52;16.2;14.2;8
74432;PMS7003;62865;53.146;23.172;2022-11-02T04:39:14;15.8;12.6;7.2
74432;PMS7003;62865;53.146;23.172;2022-11-02T04:44:40;13.4;11;6.4
74432;PMS7003;62865;53.146;23.172;2022-11-02T04:49:12;15.4;11.8;7.4
74432;PMS7003;62865;53.146;23.172;2022-11-02T04:53:52;17.2;13.4;7.8
74432;PMS7003;62865;53.146;23.172;2022-11-02T04:59:28;16;12.8;7.4
74432;PMS7003;62865;53.146;23.172;2022-11-02T05:04:26;16.6;13;7.8
74432;PMS7003;62865;53.146;23.172;2022-11-02T05:09:10;15.4;13.8;8.4
74432;PMS7003;62865;53.146;23.172;2022-11-02T05:14:00;16.2;14;8.8
74432;PMS7003;62865;53.146;23.172;2022-11-02T05:18:52;20.4;18.4;9.8
74432;PMS7003;62865;53.146;23.172;2022-11-02T05:24:40;16.8;15.6;9
74432;PMS7003;62865;53.146;23.172;2022-11-02T05:29:12;20.6;18;9.6
74432;PMS7003;62865;53.146;23.172;2022-11-02T05:34:38;24;15.5;9
74432;PMS7003;62865;53.146;23.172;2022-11-02T05:39:02;20.5;17;10.3
74432;PMS7003;62865;53.146;23.172;2022-11-02T05:44:02;22;19;12
74432;PMS7003;62865;53.146;23.172;2022-11-02T05:54:40;22;19;12
74432;PMS7003;62865;53.146;23.172;2022-11-02T05:59:40;23;18.7;10.7
74432;PMS7003;62865;53.146;23.172;2022-11-02T06:04:02;22;21;12
74432;PMS7003;62865;53.146;23.172;2022-11-02T06:08:50;29;22;12
74432;PMS7003;62865;53.146;23.172;2022-11-02T06:13:52;21;19;13
74432;PMS7003;62865;53.146;23.172;2022-11-02T06:19:24;25;21.8;12.8
74432;PMS7003;62865;53.146;23.172;2022-11-02T06:24:10;24.3;21.5;13.5
74432;PMS7003;62865;53.146;23.172;2022-11-02T06:29:00;31;25;15
74432;PMS7003;62865;53.146;23.172;2022-11-02T06:33:50;27;22.5;13.5
74432;PMS7003;62865;53.146;23.172;2022-11-02T06:39:36;27;22.5;13.5
74432;PMS7003;62865;53.146;23.172;2022-11-02T06:44:08;26;22;15
74432;PMS7003;62865;53.146;23.172;2022-11-02T06:49:36;27;22.3;14.3
74432;PMS7003;62865;53.146;23.172;2022-11-02T06:54:00;38;29;14
74432;PMS7003;62865;53.146;23.172;2022-11-02T06:59:00;38;29;14
74432;PMS7003;62865;53.146;23.172;2022-11-02T07:03:50;27;22.7;14.3
74432;PMS7003;62865;53.146;23.172;2022-11-02T07:09:20;26.4;24.4;14.6
74432;PMS7003;62865;53.146;23.172;2022-11-02T07:14:38;24.8;21.3;13
74432;PMS7003;62865;53.146;23.172;2022-11-02T07:19:00;26.7;23.8;14.3
74432;PMS7003;62865;53.146;23.172;2022-11-02T07:23:50;29;26;15.3
74432;PMS7003;62865;53.146;23.172;2022-11-02T07:29:26;31.7;26.3;15.7
74432;PMS7003;62865;53.146;23.172;2022-11-02T07:34:26;30;25;15.5
74432;PMS7003;62865;53.146;23.172;2022-11-02T07:39:10;31.5;28.3;16.8
74432;PMS7003;62865;53.146;23.172;2022-11-02T07:43:50;31.8;27.6;15.2
74432;PMS7003;62865;53.146;23.172;2022-11-02T07:49:00;32;29.6;17
74432;PMS7003;62865;53.146;23.172;2022-11-02T07:54:36;33;28.8;16.8
74432;PMS7003;62865;53.146;23.172;2022-11-02T07:59:10;31.4;28.2;16.8
74432;PMS7003;62865;53.146;23.172;2022-11-02T08:04:38;31.2;28;17.2
74432;PMS7003;62865;53.146;23.172;2022-11-02T08:09:06;34.8;30.4;17.8
74432;PMS7003;62865;53.146;23.172;2022-11-02T08:13:50;36.5;31;18.5
74432;PMS7003;62865;53.146;23.172;2022-11-02T08:19:12;38;31;17
74432;PMS7003;62865;53.146;23.172;2022-11-02T08:24:20;40;33;20
74432;PMS7003;62865;53.146;23.172;2022-11-02T08:29:24;35.8;30.8;18
74432;PMS7003;62865;53.146;23.172;2022-11-02T08:34:36;37.4;32;19.4
74432;PMS7003;62865;53.146;23.172;2022-11-02T08:39:00;37.8;32;19
74432;PMS7003;62865;53.146;23.172;2022-11-02T08:44:38;38.8;32.4;19.6
74432;PMS7003;62865;53.146;23.172;2022-11-02T08:49:16;39.3;32.3;19.8
74432;PMS7003;62865;53.146;23.172;2022-11-02T08:53:50;33.8;30.2;19.2
74432;PMS7003;62865;53.146;23.172;2022-11-02T08:59:24;33.5;30.5;19.5
74432;PMS7003;62865;53.146;23.172;2022-11-02T09:04:00;37.6;31;18.4
74432;PMS7003;62865;53.146;23.172;2022-11-02T09:09:38;38.2;31.4;19
74432;PMS7003;62865;53.146;23.172;2022-11-02T09:14:10;34.2;30;17.4
74432;PMS7003;62865;53.146;23.172;2022-11-02T09:19:38;36.3;32.3;18.8
74432;PMS7003;62865;53.146;23.172;2022-11-02T09:24:10;37.4;32;19.2
74432;PMS7003;62865;53.146;23.172;2022-11-02T09:29:26;38.7;32.3;19.3
74432;PMS7003;62865;53.146;23.172;2022-11-02T09:34:14;37.3;31;18.3
74432;PMS7003;62865;53.146;23.172;2022-11-02T09:39:22;38.6;32.4;19.6
74432;PMS7003;62865;53.146;23.172;2022-11-02T09:44:27;37.4;31.4;18.4
74432;PMS7003;62865;53.146;23.172;2022-11-02T09:49:36;37;29.6;17.8
74432;PMS7003;62865;53.146;23.172;2022-11-02T09:54:01;34.8;29.8;18.4
74432;PMS7003;62865;53.146;23.172;2022-11-02T09:59:24;35.4;30.2;18.2
74432;PMS7003;62865;53.146;23.172;2022-11-02T10:04:43;35;30.2;19
74432;PMS7003;62865;53.146;23.172;2022-11-02T10:09:11;36;28.8;18.4
74432;PMS7003;62865;53.146;23.172;2022-11-02T10:14:27;31.4;28.8;17.8
74432;PMS7003;62865;53.146;23.172;2022-11-02T10:18:58;36.2;30.2;18.8
74432;PMS7003;62865;53.146;23.172;2022-11-02T10:24:38;33;29.4;18
74432;PMS7003;62865;53.146;23.172;2022-11-02T10:29:12;31.4;28.8;17
74432;PMS7003;62865;53.146;23.172;2022-11-02T10:34:38;34.5;29.8;17.5
74432;PMS7003;62865;53.146;23.172;2022-11-02T10:39:02;28.7;26.7;16.7
74432;PMS7003;62865;53.146;23.172;2022-11-02T10:43:54;29.7;26;15.3
74432;PMS7003;62865;53.146;23.172;2022-11-02T10:49:06;29.3;24;16.7
74432;PMS7003;62865;53.146;23.172;2022-11-02T10:54:22;20.7;17.3;12
74432;PMS7003;62865;53.146;23.172;2022-11-02T10:59:26;20;18;11
74432;PMS7003;62865;53.146;23.172;2022-11-02T11:04:34;22.5;19;11
74432;PMS7003;62865;53.146;23.172;2022-11-02T11:09:15;18;15;9.5
74432;PMS7003;62865;53.146;23.172;2022-11-02T11:14:44;21.8;17.6;11.6
74432;PMS7003;62865;53.146;23.172;2022-11-02T11:19:28;22.3;20;11.7
74432;PMS7003;62865;53.146;23.172;2022-11-02T11:24:25;21.3;19.3;12
74432;PMS7003;62865;53.146;23.172;2022-11-02T11:29:28;21;15;11
74432;PMS7003;62865;53.146;23.172;2022-11-02T11:34:18;18.5;14.3;9
74432;PMS7003;62865;53.146;23.172;2022-11-02T11:39:38;13.3;12.3;8.3
74432;PMS7003;62865;53.146;23.172;2022-11-02T11:44:10;14;13;8.5
74432;PMS7003;62865;53.146;23.172;2022-11-02T11:49:38;13;10.5;7.5
74432;PMS7003;62865;53.146;23.172;2022-11-02T11:59:00;13;10.5;7.5
74432;PMS7003;62865;53.146;23.172;2022-11-02T12:04:00;16;15;9.3
74432;PMS7003;62865;53.146;23.172;2022-11-02T12:09:20;18.8;15.8;9.5
74432;PMS7003;62865;53.146;23.172;2022-11-02T12:14:33;17.7;14.7;9.3
74432;PMS7003;62865;53.146;23.172;2022-11-02T12:19:23;18;15;10.3
74432;PMS7003;62865;53.146;23.172;2022-11-02T12:23:58;19.7;17;10.7
74432;PMS7003;62865;53.146;23.172;2022-11-02T12:29:46;18;15.7;9.3
74432;PMS7003;62865;53.146;23.172;2022-11-02T12:34:46;19;17.3;11.7
74432;PMS7003;62865;53.146;23.172;2022-11-02T12:39:21;19.5;16;10.5
74432;PMS7003;62865;53.146;23.172;2022-11-02T12:44:27;17;14.8;9.8
74432;PMS7003;62865;53.146;23.172;2022-11-02T12:48:56;16.5;14.5;9
74432;PMS7003;62865;53.146;23.172;2022-11-02T12:54:25;17.7;14;9.7
74432;PMS7003;62865;53.146;23.172;2022-11-02T12:59:09;16.3;14.5;9
74432;PMS7003;62865;53.146;23.172;2022-11-02T13:04:37;16;14;10
74432;PMS7003;62865;53.146;23.172;2022-11-02T13:08:51;16.7;14;8.3
74432;PMS7003;62865;53.146;23.172;2022-11-02T13:13:51;15.6;13.2;9.2
74432;PMS7003;62865;53.146;23.172;2022-11-02T13:19:13;14.6;12.8;7.6
74432;PMS7003;62865;53.146;23.172;2022-11-02T13:24:21;15;13;8.2
74432;PMS7003;62865;53.146;23.172;2022-11-02T13:29:11;17;14.7;9.3
74432;PMS7003;62865;53.146;23.172;2022-11-02T13:34:26;14;12.8;8.3
74432;PMS7003;62865;53.146;23.172;2022-11-02T13:38:59;15;13;8.2
74432;PMS7003;62865;53.146;23.172;2022-11-02T13:44:43;14.3;12.3;7.8
74432;PMS7003;62865;53.146;23.172;2022-11-02T13:49:38;16;13.2;8.2
74432;PMS7003;62865;53.146;23.172;2022-11-02T13:54:21;15.8;14.2;8.4
74432;PMS7003;62865;53.146;23.172;2022-11-02T13:59:25;17.4;14.6;8.8
74432;PMS7003;62865;53.146;23.172;2022-11-02T14:03:53;15.4;13.6;8
74432;PMS7003;62865;53.146;23.172;2022-11-02T14:09:33;16.6;14.6;9.6
74432;PMS7003;62865;53.146;23.172;2022-11-02T14:14:24;16;14.8;10.4
74432;PMS7003;62865;53.146;23.172;2022-11-02T14:19:54;18.2;15.4;9.8
74432;PMS7003;62865;53.146;23.172;2022-11-02T14:23:50;16.8;15.8;10.4
74432;PMS7003;62865;53.146;23.172;2022-11-02T14:28:52;16.6;15.6;10.4
74432;PMS7003;62865;53.146;23.172;2022-11-02T14:33:55;17.6;15.4;10.6
74432;PMS7003;62865;53.146;23.172;2022-11-02T14:39:12;19.8;17.8;11
74432;PMS7003;62865;53.146;23.172;2022-11-02T14:44:13;18.8;16.8;10.5
74432;PMS7003;62865;53.146;23.172;2022-11-02T14:49:19;18;16.8;11
74432;PMS7003;62865;53.146;23.172;2022-11-02T14:53:59;22.2;19.2;11.8
74432;PMS7003;62865;53.146;23.172;2022-11-02T14:59:39;22.8;20;12.4
74432;PMS7003;62865;53.146;23.172;2022-11-02T15:04:44;23;20.6;13.4
74432;PMS7003;62865;53.146;23.172;2022-11-02T15:09:50;23;20.6;13.2
74432;PMS7003;62865;53.146;23.172;2022-11-02T15:14:54;23.4;20.2;12.6
74432;PMS7003;62865;53.146;23.172;2022-11-02T15:19:40;24.4;22.6;13.8
74432;PMS7003;62865;53.146;23.172;2022-11-02T15:24:36;28.4;24.4;14.4
74432;PMS7003;62865;53.146;23.172;2022-11-02T15:29:13;29.8;25.6;14.8
74432;PMS7003;62865;53.146;23.172;2022-11-02T15:34:38;32.5;26;15.5
74432;PMS7003;62865;53.146;23.172;2022-11-02T15:39:09;36.8;31;18.8
74432;PMS7003;62865;53.146;23.172;2022-11-02T15:43:58;31.5;28;16.5
74432;PMS7003;62865;53.146;23.172;2022-11-02T15:48:55;35.4;30.4;17.8
74432;PMS7003;62865;53.146;23.172;2022-11-02T15:54:09;35;30.4;17.8
74432;PMS7003;62865;53.146;23.172;2022-11-02T15:59:16;33;28;17.2
74432;PMS7003;62865;53.146;23.172;2022-11-02T16:04:18;29.2;26.2;17.4
74432;PMS7003;62865;53.146;23.172;2022-11-02T16:08:53;33.2;28.8;17.8
74432;PMS7003;62865;53.146;23.172;2022-11-02T16:14:34;31.6;27.8;18.2
74432;PMS7003;62865;53.146;23.172;2022-11-02T16:19:36;33.8;28.8;17.4
74432;PMS7003;62865;53.146;23.172;2022-11-02T16:24:22;32.8;29.8;18
74432;PMS7003;62865;53.146;23.172;2022-11-02T16:29:10;36.8;31.8;18.4
74432;PMS7003;62865;53.146;23.172;2022-11-02T16:33:53;33.4;29.6;18.2
74432;PMS7003;62865;53.146;23.172;2022-11-02T16:39:36;33;28.2;17.4
74432;PMS7003;62865;53.146;23.172;2022-11-02T16:43:50;36.6;29.8;17.8
74432;PMS7003;62865;53.146;23.172;2022-11-02T16:49:55;30.2;26.2;16.2
74432;PMS7003;62865;53.146;23.172;2022-11-02T16:54:17;31.2;27.6;17.2
74432;PMS7003;62865;53.146;23.172;2022-11-02T16:59:01;30.2;27;16.2
74432;PMS7003;62865;53.146;23.172;2022-11-02T17:04:16;35;30.2;16.8
74432;PMS7003;62865;53.146;23.172;2022-11-02T17:09:20;30.4;28.2;16.6
74432;PMS7003;62865;53.146;23.172;2022-11-02T17:13:51;35.2;31.2;17.6
74432;PMS7003;62865;53.146;23.172;2022-11-02T17:19:04;35.4;29.8;15.6
74432;PMS7003;62865;53.146;23.172;2022-11-02T17:24:24;38.4;31;17.8
74432;PMS7003;62865;53.146;23.172;2022-11-02T17:29:38;37.2;32.8;19.4
74432;PMS7003;62865;53.146;23.172;2022-11-02T17:34:36;41;33;20.3
74432;PMS7003;62865;53.146;23.172;2022-11-02T17:39:02;42;34.2;19.6
74432;PMS7003;62865;53.146;23.172;2022-11-02T17:44:28;41.4;33.8;19
74432;PMS7003;62865;53.146;23.172;2022-11-02T17:48:52;41.2;34.4;20.2
74432;PMS7003;62865;53.146;23.172;2022-11-02T17:54:42;41;33.8;19.4
74432;PMS7003;62865;53.146;23.172;2022-11-02T17:58:52;46.6;37.2;21.2
74432;PMS7003;62865;53.146;23.172;2022-11-02T18:04:42;41.6;33.8;20.6
74432;PMS7003;62865;53.146;23.172;2022-11-02T18:08:52;44.6;34.6;20.4
74432;PMS7003;62865;53.146;23.172;2022-11-02T18:14:00;47.8;36.8;20.8
74432;PMS7003;62865;53.146;23.172;2022-11-02T18:19:14;45.8;35.8;21.5
74432;PMS7003;62865;53.146;23.172;2022-11-02T18:24:26;46;36;21.4
74432;PMS7003;62865;53.146;23.172;2022-11-02T18:29:12;49.2;37.8;22.8
74432;PMS7003;62865;53.146;23.172;2022-11-02T18:34:12;46.2;36.6;21.8
74432;PMS7003;62865;53.146;23.172;2022-11-02T18:38:52;47.2;37;21.2
74432;PMS7003;62865;53.146;23.172;2022-11-02T18:44:42;46.8;37.3;21.8
74432;PMS7003;62865;53.146;23.172;2022-11-02T18:49:42;48.2;38.6;23.2
74432;PMS7003;62865;53.146;23.172;2022-11-02T18:54:26;49.3;38.7;23
74432;PMS7003;62865;53.146;23.172;2022-11-02T18:59:28;47.5;39;22
74432;PMS7003;62865;53.146;23.172;2022-11-02T19:04:12;50.5;38.5;22
74432;PMS7003;62865;53.146;23.172;2022-11-02T19:09:42;49.4;37.8;21.8
74432;PMS7003;62865;53.146;23.172;2022-11-02T19:14:27;49.5;38.8;22.3
74432;PMS7003;62865;53.146;23.172;2022-11-02T19:19:43;46.4;36.2;21.4
74432;PMS7003;62865;53.146;23.172;2022-11-02T19:24:10;47.5;40;22.5
74432;PMS7003;62865;53.146;23.172;2022-11-02T19:29:04;48;37.5;22.8
74432;PMS7003;62865;53.146;23.172;2022-11-02T19:34:16;50.8;39;22
74432;PMS7003;62865;53.146;23.172;2022-11-02T19:39:26;51.6;38.4;22.2
74432;PMS7003;62865;53.146;23.172;2022-11-02T19:44:03;50;37.8;22
74432;PMS7003;62865;53.146;23.172;2022-11-02T19:48:55;50.2;38.8;22.6
74432;PMS7003;62865;53.146;23.172;2022-11-02T19:53:53;51;41;23.5
74432;PMS7003;62865;53.146;23.172;2022-11-02T19:59:42;52.3;40.7;22.7
74432;PMS7003;62865;53.146;23.172;2022-11-02T20:04:44;49.3;39.8;23.5
74432;PMS7003;62865;53.146;23.172;2022-11-02T20:09:24;50;39.8;23.6
74432;PMS7003;62865;53.146;23.172;2022-11-02T20:14:29;55;45;23.5
74432;PMS7003;62865;53.146;23.172;2022-11-02T20:18:51;54.7;40;23.3
74432;PMS7003;62865;53.146;23.172;2022-11-02T20:24:44;51.7;41.3;24
74432;PMS7003;62865;53.146;23.172;2022-11-02T20:29:14;52.5;41.3;24.3
74432;PMS7003;62865;53.146;23.172;2022-11-02T20:34:42;52.3;40.5;23
74432;PMS7003;62865;53.146;23.172;2022-11-02T20:39:12;51;41;24
74432;PMS7003;62865;53.146;23.172;2022-11-02T20:43:53;52.3;40.5;24.5
74432;PMS7003;62865;53.146;23.172;2022-11-02T20:49:28;52.2;41;23.8
74432;PMS7003;62865;53.146;23.172;2022-11-02T20:54:16;55.3;43.8;24.5
74432;PMS7003;62865;53.146;23.172;2022-11-02T20:59:45;53.4;43.2;24.2
74432;PMS7003;62865;53.146;23.172;2022-11-02T21:04:42;53.4;42;23.6
74432;PMS7003;62865;53.146;23.172;2022-11-02T21:09:14;56;43.3;25
74432;PMS7003;62865;53.146;23.172;2022-11-02T21:14:30;53.5;41.8;24.5
74432;PMS7003;62865;53.146;23.172;2022-11-02T21:19:30;51.6;40.8;23.8
74432;PMS7003;62865;53.146;23.172;2022-11-02T21:24:07;50;39.3;22.8
74432;PMS7003;62865;53.146;23.172;2022-11-02T21:29:14;46;36.3;22
74432;PMS7003;62865;53.146;23.172;2022-11-02T21:34:03;46.5;38;23
74432;PMS7003;62865;53.146;23.172;2022-11-02T21:39:14;43;37;21
74432;PMS7003;62865;53.146;23.172;2022-11-02T21:44:30;39;33;20
74432;PMS7003;62865;53.146;23.172;2022-11-02T21:49:14;39;33;20
74432;PMS7003;62865;53.146;23.172;2022-11-02T21:54:40;43.2;33.6;20
74432;PMS7003;62865;53.146;23.172;2022-11-02T21:58:53;37.3;33;19.5
74432;PMS7003;62865;53.146;23.172;2022-11-02T22:04:26;44;33.3;19
74432;PMS7003;62865;53.146;23.172;2022-11-02T22:08:51;45.7;36.7;21
74432;PMS7003;62865;53.146;23.172;2022-11-02T22:14:37;44;37;20.7
74432;PMS7003;62865;53.146;23.172;2022-11-02T22:19:38;45;36.2;20.2
74432;PMS7003;62865;53.146;23.172;2022-11-02T22:23:59;49.5;39.5;22.5
74432;PMS7003;62865;53.146;23.172;2022-11-02T22:29:26;45;37;22
74432;PMS7003;62865;53.146;23.172;2022-11-02T22:34:26;44;37;21.7
74432;PMS7003;62865;53.146;23.172;2022-11-02T22:38:59;49;37.8;22.3
74432;PMS7003;62865;53.146;23.172;2022-11-02T22:44:09;46;36.8;21
74432;PMS7003;62865;53.146;23.172;2022-11-02T22:48:57;39.8;34;20.5
74432;PMS7003;62865;53.146;23.172;2022-11-02T22:53:52;46;35.7;21.3
74432;PMS7003;62865;53.146;23.172;2022-11-02T22:59:13;41.2;35.2;20
74432;PMS7003;62865;53.146;23.172;2022-11-02T23:04:24;42.2;34;20.2
74432;PMS7003;62865;53.146;23.172;2022-11-02T23:09:28;41.3;33.7;20.3
74432;PMS7003;62865;53.146;23.172;2022-11-02T23:14:13;42.5;34.3;21.5
74432;PMS7003;62865;53.146;23.172;2022-11-02T23:19:02;44;34.3;20
74432;PMS7003;62865;53.146;23.172;2022-11-02T23:24:13;44;34;19
74432;PMS7003;62865;53.146;23.172;2022-11-02T23:29:40;33.5;28;17
74432;PMS7003;62865;53.146;23.172;2022-11-02T23:34:41;33;26.8;15.4
74432;PMS7003;62865;53.146;23.172;2022-11-02T23:38:52;32.7;27.3;16
74432;PMS7003;62865;53.146;23.172;2022-11-02T23:44:25;27.8;23.8;13.8
74432;PMS7003;62865;53.146;23.172;2022-11-02T23:49:15;27.8;23.4;15
74432;PMS7003;62865;53.146;23.172;2022-11-02T23:54:27;28.5;23;13.5
74432;PMS7003;62865;53.146;23.172;2022-11-02T23:59:11;23.5;19.5;11.8
